sensor_id;sensor_type;location;lat;lon;timestamp;P1;durP1;ratioP1;P2;durP2;ratioP2
12910;SDS011;6523;49.758;6.120;2023-04-25T00:01:14;11.37;;;9.43;;
12910;SDS011;6523;49.758;6.120;2023-04-25T00:03:40;13.77;;;10.43;;
12910;SDS011;6523;49.758;6.120;2023-04-25T00:06:06;11.83;;;9.70;;
12910;SDS011;6523;49.758;6.120;2023-04-25T00:08:31;13.07;;;10.03;;
12910;SDS011;6523;49.758;6.120;2023-04-25T00:10:57;11.30;;;9.47;;
12910;SDS011;6523;49.758;6.120;2023-04-25T00:13:23;11.17;;;9.30;;
12910;SDS011;6523;49.758;6.120;2023-04-25T00:15:50;13.33;;;9.97;;
12910;SDS011;6523;49.758;6.120;2023-04-25T00:18:18;13.07;;;9.67;;
12910;SDS011;6523;49.758;6.120;2023-04-25T00:20:44;12.30;;;10.00;;
12910;SDS011;6523;49.758;6.120;2023-04-25T00:23:20;12.53;;;9.97;;
12910;SDS011;6523;49.758;6.120;2023-04-25T00:25:47;12.30;;;9.73;;
12910;SDS011;6523;49.758;6.120;2023-04-25T00:28:14;14.70;;;10.10;;
12910;SDS011;6523;49.758;6.120;2023-04-25T00:30:40;12.77;;;9.80;;
12910;SDS011;6523;49.758;6.120;2023-04-25T00:33:06;13.80;;;9.80;;
12910;SDS011;6523;49.758;6.120;2023-04-25T00:35:32;10.97;;;8.33;;
12910;SDS011;6523;49.758;6.120;2023-04-25T00:37:57;10.23;;;8.50;;
12910;SDS011;6523;49.758;6.120;2023-04-25T00:40:23;10.60;;;8.00;;
12910;SDS011;6523;49.758;6.120;2023-04-25T00:42:50;10.50;;;8.13;;
12910;SDS011;6523;49.758;6.120;2023-04-25T00:45:17;9.00;;;7.53;;
12910;SDS011;6523;49.758;6.120;2023-04-25T00:47:43;7.70;;;6.90;;
12910;SDS011;6523;49.758;6.120;2023-04-25T00:50:09;7.73;;;6.93;;
12910;SDS011;6523;49.758;6.120;2023-04-25T00:52:36;9.33;;;6.73;;
12910;SDS011;6523;49.758;6.120;2023-04-25T00:55:05;7.57;;;6.77;;
12910;SDS011;6523;49.758;6.120;2023-04-25T00:57:31;9.77;;;7.17;;
12910;SDS011;6523;49.758;6.120;2023-04-25T00:59:57;7.20;;;6.50;;
12910;SDS011;6523;49.758;6.120;2023-04-25T01:02:23;7.57;;;6.60;;
12910;SDS011;6523;49.758;6.120;2023-04-25T01:04:50;6.50;;;5.40;;
12910;SDS011;6523;49.758;6.120;2023-04-25T01:07:16;6.70;;;5.70;;
12910;SDS011;6523;49.758;6.120;2023-04-25T01:09:42;7.13;;;5.80;;
12910;SDS011;6523;49.758;6.120;2023-04-25T01:12:07;6.63;;;5.40;;
12910;SDS011;6523;49.758;6.120;2023-04-25T01:14:33;6.13;;;5.53;;
12910;SDS011;6523;49.758;6.120;2023-04-25T01:16:59;6.30;;;5.43;;
12910;SDS011;6523;49.758;6.120;2023-04-25T01:19:25;6.23;;;5.63;;
12910;SDS011;6523;49.758;6.120;2023-04-25T01:21:50;6.43;;;5.33;;
12910;SDS011;6523;49.758;6.120;2023-04-25T01:24:16;7.10;;;5.77;;
12910;SDS011;6523;49.758;6.120;2023-04-25T01:26:42;6.57;;;5.87;;
12910;SDS011;6523;49.758;6.120;2023-04-25T01:29:17;7.07;;;5.80;;
12910;SDS011;6523;49.758;6.120;2023-04-25T01:31:44;8.37;;;6.87;;
12910;SDS011;6523;49.758;6.120;2023-04-25T01:34:10;7.43;;;6.03;;
12910;SDS011;6523;49.758;6.120;2023-04-25T01:36:35;6.23;;;5.50;;
12910;SDS011;6523;49.758;6.120;2023-04-25T01:39:01;6.47;;;5.80;;
12910;SDS011;6523;49.758;6.120;2023-04-25T01:41:27;6.70;;;6.00;;
12910;SDS011;6523;49.758;6.120;2023-04-25T01:43:53;7.57;;;5.83;;
12910;SDS011;6523;49.758;6.120;2023-04-25T01:46:19;7.33;;;5.80;;
12910;SDS011;6523;49.758;6.120;2023-04-25T01:48:44;8.60;;;6.20;;
12910;SDS011;6523;49.758;6.120;2023-04-25T01:51:11;7.57;;;5.70;;
12910;SDS011;6523;49.758;6.120;2023-04-25T01:53:37;7.27;;;5.93;;
12910;SDS011;6523;49.758;6.120;2023-04-25T01:56:03;8.47;;;6.67;;
12910;SDS011;6523;49.758;6.120;2023-04-25T01:58:29;6.20;;;5.40;;
12910;SDS011;6523;49.758;6.120;2023-04-25T02:00:54;6.70;;;5.60;;
12910;SDS011;6523;49.758;6.120;2023-04-25T02:03:20;5.27;;;4.77;;
12910;SDS011;6523;49.758;6.120;2023-04-25T02:05:45;5.57;;;4.97;;
12910;SDS011;6523;49.758;6.120;2023-04-25T02:08:11;6.43;;;5.63;;
12910;SDS011;6523;49.758;6.120;2023-04-25T02:10:37;6.73;;;5.87;;
12910;SDS011;6523;49.758;6.120;2023-04-25T02:13:02;7.17;;;5.97;;
12910;SDS011;6523;49.758;6.120;2023-04-25T02:15:30;6.63;;;5.63;;
12910;SDS011;6523;49.758;6.120;2023-04-25T02:17:55;8.53;;;5.30;;
12910;SDS011;6523;49.758;6.120;2023-04-25T02:20:21;8.77;;;5.70;;
12910;SDS011;6523;49.758;6.120;2023-04-25T02:22:48;6.63;;;5.97;;
12910;SDS011;6523;49.758;6.120;2023-04-25T02:25:14;5.77;;;4.70;;
12910;SDS011;6523;49.758;6.120;2023-04-25T02:27:41;5.90;;;4.90;;
12910;SDS011;6523;49.758;6.120;2023-04-25T02:30:07;7.70;;;5.70;;
12910;SDS011;6523;49.758;6.120;2023-04-25T02:32:33;6.67;;;5.27;;
12910;SDS011;6523;49.758;6.120;2023-04-25T02:34:59;5.37;;;4.63;;
12910;SDS011;6523;49.758;6.120;2023-04-25T02:37:28;5.53;;;4.93;;
12910;SDS011;6523;49.758;6.120;2023-04-25T02:39:54;5.70;;;4.70;;
12910;SDS011;6523;49.758;6.120;2023-04-25T02:42:20;5.37;;;4.87;;
12910;SDS011;6523;49.758;6.120;2023-04-25T02:44:46;5.93;;;5.10;;
12910;SDS011;6523;49.758;6.120;2023-04-25T02:47:11;6.23;;;5.10;;
12910;SDS011;6523;49.758;6.120;2023-04-25T02:49:37;6.87;;;5.30;;
12910;SDS011;6523;49.758;6.120;2023-04-25T02:52:02;5.57;;;4.97;;
12910;SDS011;6523;49.758;6.120;2023-04-25T02:54:28;6.67;;;5.30;;
12910;SDS011;6523;49.758;6.120;2023-04-25T02:56:53;5.47;;;4.97;;
12910;SDS011;6523;49.758;6.120;2023-04-25T02:59:19;5.80;;;5.20;;
12910;SDS011;6523;49.758;6.120;2023-04-25T03:01:45;6.47;;;5.87;;
12910;SDS011;6523;49.758;6.120;2023-04-25T03:04:10;6.33;;;5.73;;
12910;SDS011;6523;49.758;6.120;2023-04-25T03:06:36;5.43;;;4.93;;
12910;SDS011;6523;49.758;6.120;2023-04-25T03:09:01;5.80;;;4.70;;
12910;SDS011;6523;49.758;6.120;2023-04-25T03:11:27;6.60;;;5.20;;
12910;SDS011;6523;49.758;6.120;2023-04-25T03:13:52;6.97;;;5.43;;
12910;SDS011;6523;49.758;6.120;2023-04-25T03:16:18;6.47;;;5.33;;
12910;SDS011;6523;49.758;6.120;2023-04-25T03:18:43;6.37;;;5.50;;
12910;SDS011;6523;49.758;6.120;2023-04-25T03:21:09;6.17;;;4.80;;
12910;SDS011;6523;49.758;6.120;2023-04-25T03:23:35;6.03;;;5.30;;
12910;SDS011;6523;49.758;6.120;2023-04-25T03:26:00;5.60;;;5.00;;
12910;SDS011;6523;49.758;6.120;2023-04-25T03:28:26;5.50;;;5.00;;
12910;SDS011;6523;49.758;6.120;2023-04-25T03:30:51;5.83;;;5.07;;
12910;SDS011;6523;49.758;6.120;2023-04-25T03:33:17;5.57;;;4.83;;
12910;SDS011;6523;49.758;6.120;2023-04-25T03:35:42;6.10;;;5.07;;
12910;SDS011;6523;49.758;6.120;2023-04-25T03:38:08;5.00;;;4.50;;
12910;SDS011;6523;49.758;6.120;2023-04-25T03:40:33;5.80;;;5.20;;
12910;SDS011;6523;49.758;6.120;2023-04-25T03:42:59;6.10;;;5.27;;
12910;SDS011;6523;49.758;6.120;2023-04-25T03:45:25;5.63;;;5.13;;
12910;SDS011;6523;49.758;6.120;2023-04-25T03:47:50;5.23;;;4.47;;
12910;SDS011;6523;49.758;6.120;2023-04-25T03:50:16;6.27;;;5.10;;
12910;SDS011;6523;49.758;6.120;2023-04-25T03:52:42;6.60;;;4.87;;
12910;SDS011;6523;49.758;6.120;2023-04-25T03:55:08;5.50;;;4.70;;
12910;SDS011;6523;49.758;6.120;2023-04-25T03:57:34;5.77;;;4.77;;
12910;SDS011;6523;49.758;6.120;2023-04-25T04:00:00;6.27;;;4.93;;
12910;SDS011;6523;49.758;6.120;2023-04-25T04:02:26;5.87;;;4.87;;
12910;SDS011;6523;49.758;6.120;2023-04-25T04:04:51;5.63;;;4.70;;
12910;SDS011;6523;49.758;6.120;2023-04-25T04:07:17;5.03;;;4.53;;
12910;SDS011;6523;49.758;6.120;2023-04-25T04:09:42;5.13;;;4.63;;
12910;SDS011;6523;49.758;6.120;2023-04-25T04:12:08;5.50;;;4.60;;
12910;SDS011;6523;49.758;6.120;2023-04-25T04:14:33;6.13;;;5.00;;
12910;SDS011;6523;49.758;6.120;2023-04-25T04:16:59;6.07;;;4.83;;
12910;SDS011;6523;49.758;6.120;2023-04-25T04:19:25;5.40;;;4.67;;
12910;SDS011;6523;49.758;6.120;2023-04-25T04:21:50;5.73;;;5.13;;
12910;SDS011;6523;49.758;6.120;2023-04-25T04:24:16;5.93;;;5.30;;
12910;SDS011;6523;49.758;6.120;2023-04-25T04:26:42;5.80;;;5.07;;
12910;SDS011;6523;49.758;6.120;2023-04-25T04:29:09;4.67;;;4.20;;
12910;SDS011;6523;49.758;6.120;2023-04-25T04:31:35;5.57;;;4.73;;
12910;SDS011;6523;49.758;6.120;2023-04-25T04:34:01;6.30;;;4.80;;
12910;SDS011;6523;49.758;6.120;2023-04-25T04:36:28;5.73;;;4.43;;
12910;SDS011;6523;49.758;6.120;2023-04-25T04:38:54;5.93;;;5.20;;
12910;SDS011;6523;49.758;6.120;2023-04-25T04:41:21;6.20;;;5.23;;
12910;SDS011;6523;49.758;6.120;2023-04-25T04:43:47;6.33;;;4.67;;
12910;SDS011;6523;49.758;6.120;2023-04-25T04:46:12;5.43;;;4.93;;
12910;SDS011;6523;49.758;6.120;2023-04-25T04:48:38;6.07;;;5.47;;
12910;SDS011;6523;49.758;6.120;2023-04-25T04:51:05;7.07;;;5.80;;
12910;SDS011;6523;49.758;6.120;2023-04-25T04:53:31;6.93;;;5.83;;
12910;SDS011;6523;49.758;6.120;2023-04-25T04:55:57;8.17;;;6.03;;
12910;SDS011;6523;49.758;6.120;2023-04-25T04:58:23;6.57;;;5.87;;
12910;SDS011;6523;49.758;6.120;2023-04-25T05:00:48;7.70;;;6.00;;
12910;SDS011;6523;49.758;6.120;2023-04-25T05:03:14;7.40;;;5.73;;
12910;SDS011;6523;49.758;6.120;2023-04-25T05:05:40;7.17;;;6.20;;
12910;SDS011;6523;49.758;6.120;2023-04-25T05:08:06;9.07;;;6.20;;
12910;SDS011;6523;49.758;6.120;2023-04-25T05:10:32;7.60;;;6.20;;
12910;SDS011;6523;49.758;6.120;2023-04-25T05:12:58;9.60;;;6.30;;
12910;SDS011;6523;49.758;6.120;2023-04-25T05:15:23;7.10;;;6.20;;
12910;SDS011;6523;49.758;6.120;2023-04-25T05:17:49;9.13;;;6.33;;
12910;SDS011;6523;49.758;6.120;2023-04-25T05:20:14;8.80;;;6.70;;
12910;SDS011;6523;49.758;6.120;2023-04-25T05:22:40;7.40;;;6.63;;
12910;SDS011;6523;49.758;6.120;2023-04-25T05:25:07;7.87;;;6.43;;
12910;SDS011;6523;49.758;6.120;2023-04-25T05:27:33;8.23;;;6.57;;
12910;SDS011;6523;49.758;6.120;2023-04-25T05:29:59;7.97;;;6.50;;
12910;SDS011;6523;49.758;6.120;2023-04-25T05:32:24;7.70;;;6.50;;
12910;SDS011;6523;49.758;6.120;2023-04-25T05:34:51;8.93;;;7.10;;
12910;SDS011;6523;49.758;6.120;2023-04-25T05:37:17;11.20;;;8.50;;
12910;SDS011;6523;49.758;6.120;2023-04-25T05:39:42;11.50;;;8.73;;
12910;SDS011;6523;49.758;6.120;2023-04-25T05:42:08;9.37;;;7.87;;
12910;SDS011;6523;49.758;6.120;2023-04-25T05:44:33;10.10;;;8.80;;
12910;SDS011;6523;49.758;6.120;2023-04-25T05:46:59;12.00;;;7.80;;
12910;SDS011;6523;49.758;6.120;2023-04-25T05:49:24;9.87;;;7.80;;
12910;SDS011;6523;49.758;6.120;2023-04-25T05:51:50;11.90;;;8.27;;
12910;SDS011;6523;49.758;6.120;2023-04-25T05:54:15;10.33;;;8.33;;
12910;SDS011;6523;49.758;6.120;2023-04-25T05:56:41;12.13;;;9.00;;
12910;SDS011;6523;49.758;6.120;2023-04-25T05:59:06;11.47;;;9.20;;
12910;SDS011;6523;49.758;6.120;2023-04-25T06:01:32;13.03;;;8.93;;
12910;SDS011;6523;49.758;6.120;2023-04-25T06:03:58;10.87;;;8.47;;
12910;SDS011;6523;49.758;6.120;2023-04-25T06:06:23;13.47;;;9.83;;
12910;SDS011;6523;49.758;6.120;2023-04-25T06:08:49;14.17;;;9.23;;
12910;SDS011;6523;49.758;6.120;2023-04-25T06:11:15;9.67;;;7.07;;
12910;SDS011;6523;49.758;6.120;2023-04-25T06:13:40;12.43;;;7.30;;
12910;SDS011;6523;49.758;6.120;2023-04-25T06:16:06;10.17;;;6.33;;
12910;SDS011;6523;49.758;6.120;2023-04-25T06:18:32;7.80;;;6.47;;
12910;SDS011;6523;49.758;6.120;2023-04-25T06:20:58;9.37;;;6.97;;
12910;SDS011;6523;49.758;6.120;2023-04-25T06:23:23;13.03;;;7.43;;
12910;SDS011;6523;49.758;6.120;2023-04-25T06:25:49;12.90;;;7.10;;
12910;SDS011;6523;49.758;6.120;2023-04-25T06:28:14;11.23;;;6.20;;
12910;SDS011;6523;49.758;6.120;2023-04-25T06:30:40;10.10;;;5.77;;
12910;SDS011;6523;49.758;6.120;2023-04-25T06:33:05;10.93;;;6.20;;
12910;SDS011;6523;49.758;6.120;2023-04-25T06:35:33;10.10;;;6.03;;
12910;SDS011;6523;49.758;6.120;2023-04-25T06:37:59;10.67;;;7.10;;
12910;SDS011;6523;49.758;6.120;2023-04-25T06:40:24;9.00;;;6.17;;
12910;SDS011;6523;49.758;6.120;2023-04-25T06:42:50;8.70;;;6.23;;
12910;SDS011;6523;49.758;6.120;2023-04-25T06:45:16;11.67;;;6.00;;
12910;SDS011;6523;49.758;6.120;2023-04-25T06:47:41;10.13;;;5.73;;
12910;SDS011;6523;49.758;6.120;2023-04-25T06:50:07;11.17;;;7.47;;
12910;SDS011;6523;49.758;6.120;2023-04-25T06:52:33;12.47;;;5.77;;
12910;SDS011;6523;49.758;6.120;2023-04-25T06:54:58;9.13;;;5.17;;
12910;SDS011;6523;49.758;6.120;2023-04-25T06:57:24;10.63;;;5.83;;
12910;SDS011;6523;49.758;6.120;2023-04-25T06:59:49;10.40;;;5.57;;
12910;SDS011;6523;49.758;6.120;2023-04-25T07:02:15;11.33;;;5.80;;
12910;SDS011;6523;49.758;6.120;2023-04-25T07:04:40;9.67;;;5.97;;
12910;SDS011;6523;49.758;6.120;2023-04-25T07:07:06;9.70;;;5.93;;
12910;SDS011;6523;49.758;6.120;2023-04-25T07:09:31;9.87;;;5.97;;
12910;SDS011;6523;49.758;6.120;2023-04-25T07:11:58;9.00;;;6.40;;
12910;SDS011;6523;49.758;6.120;2023-04-25T07:14:26;11.83;;;6.20;;
12910;SDS011;6523;49.758;6.120;2023-04-25T07:16:51;9.97;;;5.90;;
12910;SDS011;6523;49.758;6.120;2023-04-25T07:19:17;11.93;;;6.83;;
12910;SDS011;6523;49.758;6.120;2023-04-25T07:21:42;9.77;;;6.73;;
12910;SDS011;6523;49.758;6.120;2023-04-25T07:24:08;11.83;;;6.70;;
12910;SDS011;6523;49.758;6.120;2023-04-25T07:26:33;11.57;;;6.57;;
12910;SDS011;6523;49.758;6.120;2023-04-25T07:28:59;12.13;;;6.50;;
12910;SDS011;6523;49.758;6.120;2023-04-25T07:31:24;12.67;;;6.53;;
12910;SDS011;6523;49.758;6.120;2023-04-25T07:33:50;14.53;;;6.67;;
12910;SDS011;6523;49.758;6.120;2023-04-25T07:36:16;12.07;;;6.93;;
12910;SDS011;6523;49.758;6.120;2023-04-25T07:38:41;11.30;;;7.17;;
12910;SDS011;6523;49.758;6.120;2023-04-25T07:41:07;14.73;;;7.60;;
12910;SDS011;6523;49.758;6.120;2023-04-25T07:43:32;13.60;;;7.60;;
12910;SDS011;6523;49.758;6.120;2023-04-25T07:45:58;9.93;;;6.43;;
12910;SDS011;6523;49.758;6.120;2023-04-25T07:48:23;9.97;;;7.00;;
12910;SDS011;6523;49.758;6.120;2023-04-25T07:50:49;10.43;;;7.00;;
12910;SDS011;6523;49.758;6.120;2023-04-25T07:53:15;14.77;;;7.67;;
12910;SDS011;6523;49.758;6.120;2023-04-25T07:55:41;11.70;;;6.93;;
12910;SDS011;6523;49.758;6.120;2023-04-25T07:58:06;14.40;;;7.00;;
12910;SDS011;6523;49.758;6.120;2023-04-25T08:00:33;12.80;;;6.83;;
12910;SDS011;6523;49.758;6.120;2023-04-25T08:02:58;12.30;;;6.87;;
12910;SDS011;6523;49.758;6.120;2023-04-25T08:05:24;13.63;;;6.83;;
12910;SDS011;6523;49.758;6.120;2023-04-25T08:07:49;10.00;;;6.60;;
12910;SDS011;6523;49.758;6.120;2023-04-25T08:10:15;11.43;;;7.13;;
12910;SDS011;6523;49.758;6.120;2023-04-25T08:12:40;9.23;;;6.27;;
12910;SDS011;6523;49.758;6.120;2023-04-25T08:15:06;11.90;;;6.50;;
12910;SDS011;6523;49.758;6.120;2023-04-25T08:17:32;12.00;;;7.33;;
12910;SDS011;6523;49.758;6.120;2023-04-25T08:19:58;12.43;;;6.80;;
12910;SDS011;6523;49.758;6.120;2023-04-25T08:22:23;8.60;;;6.37;;
12910;SDS011;6523;49.758;6.120;2023-04-25T08:24:49;9.50;;;6.27;;
12910;SDS011;6523;49.758;6.120;2023-04-25T08:27:14;13.77;;;6.43;;
12910;SDS011;6523;49.758;6.120;2023-04-25T08:29:41;13.00;;;6.90;;
12910;SDS011;6523;49.758;6.120;2023-04-25T08:32:07;9.03;;;6.43;;
12910;SDS011;6523;49.758;6.120;2023-04-25T08:34:32;12.53;;;6.40;;
12910;SDS011;6523;49.758;6.120;2023-04-25T08:36:58;11.30;;;6.40;;
12910;SDS011;6523;49.758;6.120;2023-04-25T08:39:23;8.67;;;6.53;;
12910;SDS011;6523;49.758;6.120;2023-04-25T08:41:49;10.83;;;6.00;;
12910;SDS011;6523;49.758;6.120;2023-04-25T08:44:15;11.37;;;6.87;;
12910;SDS011;6523;49.758;6.120;2023-04-25T08:46:41;7.43;;;6.10;;
12910;SDS011;6523;49.758;6.120;2023-04-25T08:49:09;10.43;;;6.33;;
12910;SDS011;6523;49.758;6.120;2023-04-25T08:51:36;10.90;;;5.77;;
12910;SDS011;6523;49.758;6.120;2023-04-25T08:54:11;10.33;;;5.13;;
12910;SDS011;6523;49.758;6.120;2023-04-25T08:56:38;8.63;;;4.90;;
12910;SDS011;6523;49.758;6.120;2023-04-25T08:59:05;5.87;;;4.30;;
12910;SDS011;6523;49.758;6.120;2023-04-25T09:01:33;7.07;;;4.93;;
12910;SDS011;6523;49.758;6.120;2023-04-25T09:03:59;8.27;;;5.17;;
12910;SDS011;6523;49.758;6.120;2023-04-25T09:06:25;7.53;;;5.60;;
12910;SDS011;6523;49.758;6.120;2023-04-25T09:08:51;10.87;;;4.87;;
12910;SDS011;6523;49.758;6.120;2023-04-25T09:11:16;8.33;;;5.60;;
12910;SDS011;6523;49.758;6.120;2023-04-25T09:13:42;11.93;;;5.57;;
12910;SDS011;6523;49.758;6.120;2023-04-25T09:16:08;12.23;;;5.37;;
12910;SDS011;6523;49.758;6.120;2023-04-25T09:18:34;8.47;;;5.03;;
12910;SDS011;6523;49.758;6.120;2023-04-25T09:21:10;5.60;;;4.70;;
12910;SDS011;6523;49.758;6.120;2023-04-25T09:23:40;8.67;;;5.53;;
12910;SDS011;6523;49.758;6.120;2023-04-25T09:26:06;8.80;;;5.33;;
12910;SDS011;6523;49.758;6.120;2023-04-25T09:28:32;9.77;;;5.37;;
12910;SDS011;6523;49.758;6.120;2023-04-25T09:31:00;8.13;;;4.97;;
12910;SDS011;6523;49.758;6.120;2023-04-25T09:33:29;6.33;;;5.20;;
12910;SDS011;6523;49.758;6.120;2023-04-25T09:36:07;7.37;;;4.37;;
12910;SDS011;6523;49.758;6.120;2023-04-25T09:38:42;7.57;;;4.90;;
12910;SDS011;6523;49.758;6.120;2023-04-25T09:41:09;7.43;;;4.67;;
12910;SDS011;6523;49.758;6.120;2023-04-25T09:43:36;6.40;;;4.30;;
12910;SDS011;6523;49.758;6.120;2023-04-25T09:46:02;7.97;;;4.60;;
12910;SDS011;6523;49.758;6.120;2023-04-25T09:48:32;7.97;;;4.80;;
12910;SDS011;6523;49.758;6.120;2023-04-25T09:51:07;6.53;;;4.10;;
12910;SDS011;6523;49.758;6.120;2023-04-25T09:53:35;7.40;;;4.10;;
12910;SDS011;6523;49.758;6.120;2023-04-25T09:56:05;6.70;;;4.93;;
12910;SDS011;6523;49.758;6.120;2023-04-25T09:58:32;8.33;;;4.60;;
12910;SDS011;6523;49.758;6.120;2023-04-25T10:00:59;4.87;;;4.30;;
12910;SDS011;6523;49.758;6.120;2023-04-25T10:03:28;7.70;;;4.83;;
12910;SDS011;6523;49.758;6.120;2023-04-25T10:05:56;9.00;;;4.80;;
12910;SDS011;6523;49.758;6.120;2023-04-25T10:08:24;5.97;;;3.93;;
12910;SDS011;6523;49.758;6.120;2023-04-25T10:10:51;7.27;;;4.70;;
12910;SDS011;6523;49.758;6.120;2023-04-25T10:13:17;8.07;;;3.80;;
12910;SDS011;6523;49.758;6.120;2023-04-25T10:15:43;6.03;;;3.97;;
12910;SDS011;6523;49.758;6.120;2023-04-25T10:18:10;4.30;;;3.43;;
12910;SDS011;6523;49.758;6.120;2023-04-25T10:20:36;6.27;;;3.60;;
12910;SDS011;6523;49.758;6.120;2023-04-25T10:23:20;5.50;;;3.60;;
12910;SDS011;6523;49.758;6.120;2023-04-25T10:25:46;6.83;;;3.20;;
12910;SDS011;6523;49.758;6.120;2023-04-25T10:28:12;5.57;;;3.70;;
12910;SDS011;6523;49.758;6.120;2023-04-25T10:30:49;4.53;;;3.23;;
12910;SDS011;6523;49.758;6.120;2023-04-25T10:33:29;5.20;;;3.23;;
12910;SDS011;6523;49.758;6.120;2023-04-25T10:35:58;6.00;;;3.70;;
12910;SDS011;6523;49.758;6.120;2023-04-25T10:38:32;7.80;;;4.23;;
12910;SDS011;6523;49.758;6.120;2023-04-25T10:41:05;6.87;;;3.57;;
12910;SDS011;6523;49.758;6.120;2023-04-25T10:43:34;5.50;;;3.90;;
12910;SDS011;6523;49.758;6.120;2023-04-25T10:46:12;6.60;;;3.80;;
12910;SDS011;6523;49.758;6.120;2023-04-25T10:48:51;6.43;;;3.37;;
12910;SDS011;6523;49.758;6.120;2023-04-25T10:51:25;8.10;;;4.23;;
12910;SDS011;6523;49.758;6.120;2023-04-25T10:56:20;7.83;;;3.53;;
12910;SDS011;6523;49.758;6.120;2023-04-25T11:01:48;7.57;;;4.20;;
12910;SDS011;6523;49.758;6.120;2023-04-25T11:07:02;7.10;;;4.37;;
12910;SDS011;6523;49.758;6.120;2023-04-25T11:09:49;8.27;;;4.10;;
12910;SDS011;6523;49.758;6.120;2023-04-25T11:12:15;7.37;;;4.50;;
12910;SDS011;6523;49.758;6.120;2023-04-25T11:14:41;10.57;;;4.13;;
12910;SDS011;6523;49.758;6.120;2023-04-25T11:17:07;6.53;;;3.90;;
12910;SDS011;6523;49.758;6.120;2023-04-25T11:19:33;5.30;;;4.17;;
12910;SDS011;6523;49.758;6.120;2023-04-25T11:21:59;6.77;;;4.67;;
12910;SDS011;6523;49.758;6.120;2023-04-25T11:24:30;9.70;;;4.30;;
12910;SDS011;6523;49.758;6.120;2023-04-25T11:27:00;9.90;;;4.20;;
12910;SDS011;6523;49.758;6.120;2023-04-25T11:29:29;6.87;;;4.33;;
12910;SDS011;6523;49.758;6.120;2023-04-25T11:31:56;6.63;;;4.37;;
12910;SDS011;6523;49.758;6.120;2023-04-25T11:34:26;7.80;;;4.43;;
12910;SDS011;6523;49.758;6.120;2023-04-25T11:36:52;10.10;;;4.20;;
12910;SDS011;6523;49.758;6.120;2023-04-25T11:39:21;7.47;;;4.30;;
12910;SDS011;6523;49.758;6.120;2023-04-25T11:41:48;6.30;;;4.40;;
12910;SDS011;6523;49.758;6.120;2023-04-25T11:44:17;6.10;;;4.07;;
12910;SDS011;6523;49.758;6.120;2023-04-25T11:46:43;7.07;;;3.77;;
12910;SDS011;6523;49.758;6.120;2023-04-25T11:49:09;7.03;;;4.23;;
12910;SDS011;6523;49.758;6.120;2023-04-25T11:51:53;4.80;;;3.70;;
12910;SDS011;6523;49.758;6.120;2023-04-25T11:54:18;7.97;;;3.90;;
12910;SDS011;6523;49.758;6.120;2023-04-25T11:56:45;4.10;;;3.70;;
12910;SDS011;6523;49.758;6.120;2023-04-25T11:59:11;3.73;;;3.40;;
12910;SDS011;6523;49.758;6.120;2023-04-25T12:01:38;6.00;;;3.80;;
12910;SDS011;6523;49.758;6.120;2023-04-25T12:04:12;6.73;;;3.90;;
12910;SDS011;6523;49.758;6.120;2023-04-25T12:06:39;4.90;;;3.60;;
12910;SDS011;6523;49.758;6.120;2023-04-25T12:09:07;5.17;;;3.53;;
12910;SDS011;6523;49.758;6.120;2023-04-25T12:11:45;5.83;;;3.83;;
12910;SDS011;6523;49.758;6.120;2023-04-25T12:17:11;5.27;;;3.63;;
12910;SDS011;6523;49.758;6.120;2023-04-25T12:19:37;4.67;;;3.53;;
12910;SDS011;6523;49.758;6.120;2023-04-25T12:22:42;6.43;;;3.90;;
12910;SDS011;6523;49.758;6.120;2023-04-25T12:25:01;5.47;;;3.43;;
12910;SDS011;6523;49.758;6.120;2023-04-25T12:27:30;5.17;;;3.53;;
12910;SDS011;6523;49.758;6.120;2023-04-25T12:29:56;9.00;;;4.13;;
12910;SDS011;6523;49.758;6.120;2023-04-25T12:32:22;6.27;;;3.90;;
12910;SDS011;6523;49.758;6.120;2023-04-25T12:34:48;6.73;;;3.67;;
12910;SDS011;6523;49.758;6.120;2023-04-25T12:37:13;3.90;;;3.50;;
12910;SDS011;6523;49.758;6.120;2023-04-25T12:39:39;7.40;;;3.70;;
12910;SDS011;6523;49.758;6.120;2023-04-25T12:42:04;7.83;;;3.90;;
12910;SDS011;6523;49.758;6.120;2023-04-25T12:44:32;5.77;;;2.97;;
12910;SDS011;6523;49.758;6.120;2023-04-25T12:46:58;5.27;;;3.40;;
12910;SDS011;6523;49.758;6.120;2023-04-25T12:49:24;7.97;;;3.50;;
12910;SDS011;6523;49.758;6.120;2023-04-25T12:51:50;6.07;;;3.63;;
12910;SDS011;6523;49.758;6.120;2023-04-25T12:54:16;5.17;;;3.30;;
12910;SDS011;6523;49.758;6.120;2023-04-25T12:56:42;7.33;;;3.60;;
12910;SDS011;6523;49.758;6.120;2023-04-25T12:59:07;6.37;;;3.80;;
12910;SDS011;6523;49.758;6.120;2023-04-25T13:01:34;5.90;;;3.40;;
12910;SDS011;6523;49.758;6.120;2023-04-25T13:04:01;7.40;;;3.17;;
12910;SDS011;6523;49.758;6.120;2023-04-25T13:06:26;5.23;;;3.37;;
12910;SDS011;6523;49.758;6.120;2023-04-25T13:08:52;4.07;;;2.97;;
12910;SDS011;6523;49.758;6.120;2023-04-25T13:11:18;7.17;;;3.50;;
12910;SDS011;6523;49.758;6.120;2023-04-25T13:13:43;6.53;;;3.00;;
12910;SDS011;6523;49.758;6.120;2023-04-25T13:16:09;4.33;;;3.10;;
12910;SDS011;6523;49.758;6.120;2023-04-25T13:18:36;7.83;;;3.50;;
12910;SDS011;6523;49.758;6.120;2023-04-25T13:21:02;4.57;;;2.80;;
12910;SDS011;6523;49.758;6.120;2023-04-25T13:23:28;3.50;;;3.03;;
12910;SDS011;6523;49.758;6.120;2023-04-25T13:25:54;5.67;;;3.03;;
12910;SDS011;6523;49.758;6.120;2023-04-25T13:28:22;7.30;;;3.47;;
12910;SDS011;6523;49.758;6.120;2023-04-25T13:30:48;6.73;;;2.83;;
12910;SDS011;6523;49.758;6.120;2023-04-25T13:33:14;6.13;;;2.97;;
12910;SDS011;6523;49.758;6.120;2023-04-25T13:35:40;4.37;;;2.50;;
12910;SDS011;6523;49.758;6.120;2023-04-25T13:38:08;3.50;;;2.77;;
12910;SDS011;6523;49.758;6.120;2023-04-25T13:40:33;4.20;;;2.63;;
12910;SDS011;6523;49.758;6.120;2023-04-25T13:42:59;4.67;;;2.87;;
12910;SDS011;6523;49.758;6.120;2023-04-25T13:45:26;7.43;;;3.30;;
12910;SDS011;6523;49.758;6.120;2023-04-25T13:47:51;4.30;;;2.53;;
12910;SDS011;6523;49.758;6.120;2023-04-25T13:50:17;3.67;;;2.50;;
12910;SDS011;6523;49.758;6.120;2023-04-25T13:52:43;4.50;;;2.97;;
12910;SDS011;6523;49.758;6.120;2023-04-25T13:55:08;5.07;;;2.60;;
12910;SDS011;6523;49.758;6.120;2023-04-25T13:57:35;4.80;;;2.90;;
12910;SDS011;6523;49.758;6.120;2023-04-25T14:00:01;6.17;;;2.90;;
12910;SDS011;6523;49.758;6.120;2023-04-25T14:02:33;6.70;;;2.53;;
12910;SDS011;6523;49.758;6.120;2023-04-25T14:05:03;4.63;;;2.47;;
12910;SDS011;6523;49.758;6.120;2023-04-25T14:07:29;3.60;;;2.37;;
12910;SDS011;6523;49.758;6.120;2023-04-25T14:09:55;4.20;;;1.97;;
12910;SDS011;6523;49.758;6.120;2023-04-25T14:12:22;3.57;;;2.53;;
12910;SDS011;6523;49.758;6.120;2023-04-25T14:14:48;4.90;;;2.90;;
12910;SDS011;6523;49.758;6.120;2023-04-25T14:17:13;5.23;;;2.43;;
12910;SDS011;6523;49.758;6.120;2023-04-25T14:19:39;5.63;;;2.73;;
12910;SDS011;6523;49.758;6.120;2023-04-25T14:22:08;4.53;;;2.60;;
12910;SDS011;6523;49.758;6.120;2023-04-25T14:24:33;7.23;;;2.70;;
12910;SDS011;6523;49.758;6.120;2023-04-25T14:26:59;4.83;;;3.37;;
12910;SDS011;6523;49.758;6.120;2023-04-25T14:29:25;4.17;;;2.63;;
12910;SDS011;6523;49.758;6.120;2023-04-25T14:31:51;5.23;;;2.77;;
12910;SDS011;6523;49.758;6.120;2023-04-25T14:34:17;5.00;;;3.23;;
12910;SDS011;6523;49.758;6.120;2023-04-25T14:36:43;6.47;;;3.10;;
12910;SDS011;6523;49.758;6.120;2023-04-25T14:39:08;6.07;;;3.03;;
12910;SDS011;6523;49.758;6.120;2023-04-25T14:41:35;4.00;;;2.70;;
12910;SDS011;6523;49.758;6.120;2023-04-25T14:44:00;3.10;;;2.77;;
12910;SDS011;6523;49.758;6.120;2023-04-25T14:46:26;4.53;;;2.70;;
12910;SDS011;6523;49.758;6.120;2023-04-25T14:48:52;4.90;;;3.00;;
12910;SDS011;6523;49.758;6.120;2023-04-25T14:51:17;4.70;;;2.70;;
12910;SDS011;6523;49.758;6.120;2023-04-25T14:53:43;7.40;;;3.13;;
12910;SDS011;6523;49.758;6.120;2023-04-25T14:56:09;4.43;;;2.47;;
12910;SDS011;6523;49.758;6.120;2023-04-25T14:58:34;6.03;;;2.80;;
12910;SDS011;6523;49.758;6.120;2023-04-25T15:01:00;4.40;;;2.53;;
12910;SDS011;6523;49.758;6.120;2023-04-25T15:03:26;2.93;;;2.20;;
12910;SDS011;6523;49.758;6.120;2023-04-25T15:05:52;3.63;;;2.10;;